Time;durP1;ratioP1;P1;durP2;ratioP2;P2;SDS_P1;SDS_P2;PMS_P1;PMS_P2;Temp;Humidity;BMP_temperature;BMP_pressure;BME280_temperature;BME280_humidity;BME280_pressure;Samples;Min_cycle;Max_cycle;Signal;HPM_P1;HPM_P2
2023/03/29 05:00:30;;;;;;;;;2.00;2.00;;;;;12.94;54.81;55935.25;5961788;22;46082;-94
2023/03/29 05:02:56;;;;;;;;;1.67;1.67;;;;;13.22;54.47;55779.50;4997146;28;46076;-90
2023/03/29 05:05:23;;;;;;;;;1.67;1.67;;;;;13.91;54.50;55752.16;4990361;28;45523;-92
2023/03/29 05:07:51;;;;;;;;;2.00;2.00;;;;;13.59;54.83;55364.47;4993597;28;45471;-89
2023/03/29 05:10:17;;;;;;;;;1.00;1.00;;;;;12.76;55.21;53786.56;4992381;28;45276;-89
2023/03/29 05:12:42;;;;;;;;;1.00;1.00;;;;;12.66;55.90;52456.38;4992653;28;46769;-88
2023/03/29 05:15:17;;;;;;;;;1.00;1.00;;;;;13.00;55.81;52018.88;4992157;28;45534;-92
2023/03/29 05:17:44;;;;;;;;;1.00;1.00;;;;;12.90;55.38;52145.00;4983430;28;45566;-91
2023/03/29 05:20:10;;;;;;;;;2.00;1.00;;;;;13.03;55.41;52133.09;4978959;28;45695;-91
2023/03/29 05:22:37;;;;;;;;;1.00;1.00;;;;;13.48;55.51;51731.59;4987044;28;45629;-91
2023/03/29 05:25:03;;;;;;;;;2.00;1.00;;;;;13.52;55.33;51341.13;4982839;28;45615;-89
2023/03/29 05:27:29;;;;;;;;;0.33;0.33;;;;;13.66;55.70;51107.25;4989624;28;46059;-92
2023/03/29 05:29:54;;;;;;;;;2.00;1.00;;;;;13.26;55.84;50421.53;4991129;28;45475;-91
2023/03/29 05:32:20;;;;;;;;;0.33;0.33;;;;;13.29;55.90;49945.81;4971275;28;48097;-90
2023/03/29 05:34:45;;;;;;;;;1.00;1.00;;;;;13.58;56.10;49563.63;4989212;28;45539;-92
2023/03/29 05:37:12;;;;;;;;;1.33;0.00;;;;;13.39;56.38;48675.38;4994174;28;45611;-92
2023/03/29 05:39:38;;;;;;;;;1.00;1.00;;;;;13.73;56.35;47947.50;4991358;28;46520;-93
2023/03/29 05:42:04;;;;;;;;;0.00;0.00;;;;;13.52;56.35;47589.31;4997550;28;46119;-90
2023/03/29 05:44:30;;;;;;;;;0.33;0.33;;;;;13.31;56.35;46748.06;4994471;28;45518;-92
2023/03/29 05:47:03;;;;;;;;;1.00;1.00;;;;;13.03;57.02;45683.22;4989387;28;45677;-94
2023/03/29 05:49:28;;;;;;;;;1.00;1.00;;;;;13.14;57.22;44867.84;4977180;28;45369;-89
2023/03/29 05:51:55;;;;;;;;;0.67;0.67;;;;;13.02;57.06;44152.06;4990651;28;46394;-89
2023/03/29 05:55:07;;;;;;;;;0.33;0.33;;;;;14.07;57.12;42469.69;4988115;28;45511;-88
2023/03/29 05:57:39;;;;;;;;;1.00;1.00;;;;;13.87;57.60;39755.13;4981288;28;45623;-87
2023/03/29 06:02:55;;;;;;;;;0.33;0.33;;;;;12.24;57.69;36144.03;4981117;28;45226;-93
2023/03/29 06:05:21;;;;;;;;;1.00;1.00;;;;;13.15;57.85;35161.16;4981587;28;45604;-90
2023/03/29 06:07:52;;;;;;;;;0.00;0.00;;;;;14.12;58.02;33434.34;4996988;28;45451;-89
2023/03/29 06:10:19;;;;;;;;;0.00;0.00;;;;;13.06;58.03;32964.16;4999239;28;45339;-88
2023/03/29 06:12:46;;;;;;;;;2.33;1.00;;;;;13.90;58.30;30719.25;4984272;28;46424;-88
2023/03/29 06:15:15;;;;;;;;;1.00;1.00;;;;;13.67;58.90;27597.22;4967806;28;45507;-88
2023/03/29 06:17:43;;;;;;;;;0.67;0.67;;;;;13.29;58.74;27578.22;4971774;28;45402;-88
2023/03/29 06:20:10;;;;;;;;;0.33;0.33;;;;;12.61;58.64;27208.78;4997134;28;45433;-88
2023/03/29 06:22:46;;;;;;;;;1.00;1.00;;;;;12.69;58.48;26204.59;4998458;28;45545;-87
2023/03/29 06:25:14;;;;;;;;;6.67;5.33;;;;;13.66;58.82;24904.94;4987212;28;45566;-88
2023/03/29 06:27:42;;;;;;;;;2.67;2.67;;;;;14.22;59.05;23247.22;4996751;28;45405;-86
2023/03/29 06:30:14;;;;;;;;;0.67;0.67;;;;;12.80;58.76;22179.94;4997971;28;45277;-89
2023/03/29 06:33:17;;;;;;;;;1.00;1.00;;;;;14.25;59.79;18539.75;4986754;28;45471;-89
2023/03/29 06:35:46;;;;;;;;;0.00;0.00;;;;;14.25;58.89;18539.91;4990345;28;45502;-86
2023/03/29 06:38:11;;;;;;;;;0.00;0.00;;;;;14.00;59.03;19539.28;4989139;28;45477;-85
2023/03/29 06:40:39;;;;;;;;;0.33;0.33;;;;;14.12;59.30;17863.41;4985159;28;45449;-84
2023/03/29 06:43:05;;;;;;;;;0.67;0.67;;;;;14.27;59.10;18204.50;4986761;28;47151;-84
2023/03/29 06:45:36;;;;;;;;;2.00;1.00;;;;;14.28;59.52;16188.56;4994113;28;45492;-83
2023/03/29 06:48:03;;;;;;;;;1.00;1.00;;;;;14.30;59.50;16189.34;4978862;28;45386;-85
2023/03/29 06:50:29;;;;;;;;;6.33;4.00;;;;;14.26;59.92;13837.16;4990976;28;45505;-83
2023/03/29 06:52:56;;;;;;;;;1.33;1.33;;;;;14.06;59.76;13831.84;4997754;28;46267;-84
2023/03/29 06:55:22;;;;;;;;;1.33;1.33;;;;;14.39;59.89;13169.13;4981733;28;45469;-83
2023/03/29 06:57:47;;;;;;;;;1.00;1.00;;;;;14.00;59.65;13159.06;4998569;28;45305;-82
2023/03/29 07:00:26;;;;;;;;;1.00;1.00;;;;;14.43;60.01;11827.44;4999291;28;45455;-83
2023/03/29 07:02:52;;;;;;;;;3.00;1.00;;;;;14.27;59.77;11488.06;4998716;28;46676;-83
2023/03/29 07:05:18;;;;;;;;;1.00;1.00;;;;;14.49;60.09;10486.56;4999074;28;45253;-83
2023/03/29 07:07:55;;;;;;;;;1.00;1.00;;;;;14.24;59.95;10145.56;4998814;28;45431;-83
2023/03/29 07:10:21;;;;;;;;;1.00;1.00;;;;;14.32;59.90;10147.31;4999098;28;45502;-83
2023/03/29 07:12:48;;;;;;;;;1.00;1.00;;;;;14.59;60.35;8475.47;4998102;28;47458;-82
2023/03/29 07:15:14;;;;;;;;;2.33;1.00;;;;;14.27;60.55;7799.06;4998527;28;45453;-82
2023/03/29 07:17:39;;;;;;;;;1.00;1.00;;;;;14.42;60.12;7801.69;4997337;28;45439;-89
2023/03/29 07:20:14;;;;;;;;;1.00;1.00;;;;;14.60;60.55;6128.31;4980074;28;45490;-88
2023/03/29 07:22:42;;;;;;;;;0.67;0.67;;;;;14.72;60.55;5459.59;4989812;28;46233;-88
2023/03/29 07:25:08;;;;;;;;;1.00;1.00;;;;;14.74;60.50;5459.94;4978342;28;45409;-88
2023/03/29 07:27:35;;;;;;;;;1.67;1.67;;;;;14.43;61.16;2775.78;4978046;28;45341;-88
2023/03/29 07:30:00;;;;;;;;;1.00;1.00;;;;;14.63;61.47;1103.25;4979238;28;45290;-88
2023/03/29 07:32:29;;;;;;;;;1.33;0.33;;;;;14.36;61.42;432.19;4978889;28;45484;-89
2023/03/29 07:34:54;;;;;;;;;1.00;1.00;;;;;14.38;61.19;432.25;4961136;28;45381;-88
2023/03/29 07:37:20;;;;;;;;;1.00;1.00;;;;;14.62;61.04;1103.19;4978927;28;45341;-88
2023/03/29 07:39:46;;;;;;;;;2.00;1.00;;;;;14.86;60.87;769.94;4979112;28;45470;-88
2023/03/29 07:42:14;;;;;;;;;0.33;0.33;;;;;13.88;61.38;-573.56;4978499;28;46169;-88
2023/03/29 07:44:40;;;;;;;;;2.00;2.00;;;;;13.38;61.24;-241.63;4978268;28;45273;-88
2023/03/29 07:47:05;;;;;;;;;1.00;0.00;;;;;14.09;61.93;-2244.22;4978870;28;45308;-88
2023/03/29 07:49:31;;;;;;;;;3.00;1.00;;;;;14.98;61.60;-1908.16;4978943;28;45577;-88
2023/03/29 07:52:43;;;;;;;;;1.00;1.00;;;;;15.04;61.15;-1908.03;4978096;28;46079;-87
2023/03/29 07:55:18;;;;;;;;;3.33;2.00;;;;;14.04;61.54;-2244.31;4977899;28;45523;-87
2023/03/29 07:57:44;;;;;;;;;1.00;1.00;;;;;14.28;62.05;-3581.06;4978472;28;45313;-88
2023/03/29 08:00:18;;;;;;;;;1.67;1.67;;;;;15.18;62.99;-6592.81;4979372;28;45350;-87
2023/03/29 08:02:51;;;;;;;;;1.00;1.00;;;;;14.13;63.66;-10591.63;4992633;28;46122;-87
2023/03/29 08:05:17;;;;;;;;;1.67;1.00;;;;;14.12;63.31;-9924.34;4997321;28;45373;-88
2023/03/29 08:07:47;;;;;;;;;2.00;2.00;;;;;14.61;63.70;-10597.22;4997762;28;45332;-87
2023/03/29 08:10:24;;;;;;;;;0.67;0.67;;;;;14.08;63.31;-10257.44;4997819;28;45849;-88
2023/03/29 08:12:53;;;;;;;;;3.00;2.00;;;;;13.84;63.39;-11254.88;4997534;28;47491;-88
2023/03/29 08:15:20;;;;;;;;;0.00;0.00;;;;;14.18;63.14;-10592.16;4997779;28;45350;-88
2023/03/29 08:17:46;;;;;;;;;1.33;1.33;;;;;14.81;62.91;-10599.59;4997600;28;45496;-88
2023/03/29 08:20:15;;;;;;;;;2.00;2.00;;;;;14.25;62.73;-10259.34;4998090;28;45407;-88
2023/03/29 08:22:49;;;;;;;;;2.00;2.00;;;;;14.76;63.21;-11934.28;4997927;28;46412;-88
2023/03/29 08:25:21;;;;;;;;;1.33;1.33;;;;;15.15;63.34;-11939.78;4979647;28;45440;-89
2023/03/29 08:27:46;;;;;;;;;1.00;1.00;;;;;15.33;63.75;-12610.28;4997377;28;45669;-88
2023/03/29 08:30:15;;;;;;;;;1.00;1.00;;;;;15.56;63.60;-13282.00;4998007;28;45487;-88
2023/03/29 08:32:40;;;;;;;;;2.00;2.00;;;;;15.51;64.24;-14283.16;4997426;28;46420;-88
2023/03/29 08:35:10;;;;;;;;;2.00;2.00;;;;;14.59;64.68;-15266.97;4996861;28;45361;-88
2023/03/29 08:37:36;;;;;;;;;1.33;1.33;;;;;14.82;65.04;-15604.91;4997686;28;45392;-88
2023/03/29 08:40:02;;;;;;;;;2.00;2.00;;;;;14.90;65.11;-16606.91;4997400;28;45445;-87
2023/03/29 08:43:04;;;;;;;;;2.00;1.00;;;;;15.88;64.92;-16627.97;4997234;28;46044;-88
2023/03/29 08:45:40;;;;;;;;;2.00;2.00;;;;;15.94;64.71;-16629.19;4987643;28;45266;-88
2023/03/29 08:48:05;;;;;;;;;1.00;1.00;;;;;15.65;64.59;-16623.03;4979785;28;45445;-86
2023/03/29 08:50:42;;;;;;;;;3.67;3.00;;;;;15.73;64.74;-16958.66;4997755;28;45622;-87
2023/03/29 08:53:21;;;;;;;;;1.00;1.00;;;;;15.98;64.82;-16964.16;4996635;28;47146;-87
2023/03/29 08:55:47;;;;;;;;;2.00;1.33;;;;;16.12;65.09;-17635.06;4997003;28;45416;-86
2023/03/29 08:58:18;;;;;;;;;1.33;1.33;;;;;16.16;65.37;-17970.00;4997406;28;45519;-86
2023/03/29 09:00:49;;;;;;;;;1.00;1.00;;;;;16.20;64.60;-17303.03;4997203;28;45510;-84
2023/03/29 09:03:24;;;;;;;;;1.00;1.00;;;;;15.83;64.44;-16960.78;4996982;28;45665;-83
2023/03/29 09:06:14;;;;;;;;;1.00;1.00;;;;;16.32;64.07;-16971.44;4997003;28;45356;-83
2023/03/29 09:08:44;;;;;;;;;1.00;1.00;;;;;16.40;63.83;-16973.22;4996752;28;45377;-84
2023/03/29 09:11:19;;;;;;;;;1.00;1.00;;;;;16.45;63.75;-16640.22;4997441;28;45476;-83
2023/03/29 09:14:41;;;;;;;;;3.00;2.00;;;;;16.53;64.16;-16976.16;4995683;28;46082;-83
2023/03/29 09:17:29;;;;;;;;;0.67;0.67;;;;;16.62;63.84;-16978.06;4936063;28;45390;-83
2023/03/29 09:20:05;;;;;;;;;0.00;0.00;;;;;16.70;63.77;-16979.84;4936206;28;45483;-84
2023/03/29 09:22:33;;;;;;;;;1.33;1.33;;;;;16.79;63.44;-16647.34;4936257;28;45479;-84
2023/03/29 09:25:07;;;;;;;;;3.00;1.00;;;;;16.88;63.43;-16649.31;4935825;28;46489;-84
2023/03/29 09:27:46;;;;;;;;;1.00;1.00;;;;;16.64;63.24;-16978.50;4936210;28;45431;-84
2023/03/29 09:30:52;;;;;;;;;0.00;0.00;;;;;16.72;63.51;-16980.19;4936441;28;45430;-84
2023/03/29 09:33:26;;;;;;;;;1.00;1.00;;;;;17.15;63.30;-16989.72;4936343;28;45638;-84
2023/03/29 09:36:09;;;;;;;;;1.00;1.00;;;;;17.21;63.10;-16990.94;4935774;28;46819;-84
2023/03/29 09:38:41;;;;;;;;;1.00;1.00;;;;;17.28;63.18;-16992.53;4935221;28;45694;-84
2023/03/29 09:41:32;;;;;;;;;2.33;1.00;;;;;17.33;63.33;-17328.31;4935766;28;45475;-84
2023/03/29 09:44:04;;;;;;;;;1.00;1.00;;;;;17.12;63.05;-17323.59;4931898;28;45498;-84
2023/03/29 09:46:40;;;;;;;;;1.00;1.00;;;;;17.29;63.24;-17662.00;4935534;28;47284;-84
2023/03/29 09:49:11;;;;;;;;;1.33;0.00;;;;;17.14;63.58;-17993.00;4995542;28;45412;-84
2023/03/29 09:51:38;;;;;;;;;1.00;1.00;;;;;17.71;63.25;-17671.63;4996339;28;45691;-84
2023/03/29 09:54:04;;;;;;;;;1.00;1.00;;;;;17.57;62.93;-17668.34;4996898;28;45657;-84
2023/03/29 09:56:30;;;;;;;;;0.00;0.00;;;;;17.85;62.72;-18009.81;4996520;28;46777;-85
2023/03/29 09:58:55;;;;;;;;;2.00;2.00;;;;;18.34;62.83;-18021.34;4996211;28;45452;-84
2023/03/29 10:01:21;;;;;;;;;2.33;0.00;;;;;18.70;62.66;-18364.94;4996389;28;45398;-84
2023/03/29 10:03:50;;;;;;;;;1.00;1.00;;;;;19.07;62.24;-18373.75;4979055;28;45345;-84
2023/03/29 10:06:17;;;;;;;;;0.00;0.00;;;;;19.32;61.81;-18379.78;4996155;28;47033;-85
2023/03/29 10:14:53;;;;;;;;;0.33;0.33;;;;;20.10;60.42;-18734.53;4963014;23;45211;-85
2023/03/29 10:17:22;;;;;;;;;0.75;0.75;;;;;20.42;59.39;-18406.22;4966638;28;45450;-89
2023/03/29 10:19:50;;;;;;;;;1.00;1.00;;;;;21.12;59.31;-18759.31;4969022;28;45461;-87
2023/03/29 10:22:59;;;;;;;;;;;;;;;;;;;;;
2023/03/29 10:25:31;;;;;;;;;0.50;0.50;;;;;22.28;57.47;-18113.38;4984466;22;62021;-86
2023/03/29 10:28:26;;;;;;;;;0.50;0.50;;;;;23.43;56.23;-18139.97;4983727;28;46164;-90
2023/03/29 10:30:55;;;;;;;;;0.00;0.00;;;;;23.71;54.38;-16118.13;4969769;28;45845;-86
2023/03/29 10:33:23;;;;;;;;;0.75;0.75;;;;;23.64;54.64;-16454.81;4998767;28;45401;-88
2023/03/29 10:35:57;;;;;;;;;2.00;0.50;;;;;24.74;53.19;-14783.50;4985181;28;45457;-87
2023/03/29 10:38:26;;;;;;;;;2.00;1.00;;;;;24.58;52.40;-13425.50;4977395;28;46475;-88
2023/03/29 10:40:54;;;;;;;;;0.00;0.00;;;;;24.63;51.27;-10374.84;4984439;28;45394;-88
2023/03/29 10:43:32;;;;;;;;;2.00;0.50;;;;;25.18;51.36;-10380.84;4989219;28;45312;-86
2023/03/29 10:46:31;;;;;;;;;0.25;0.25;;;;;25.40;50.90;-9364.34;4976121;28;45527;-89
2023/03/29 10:52:24;;;;;;;;;0.00;0.00;;;;;25.13;50.47;-6984.41;4995807;28;45368;-87
2023/03/29 10:54:53;;;;;;;;;0.75;0.75;;;;;25.37;49.95;-4945.94;5002702;28;45915;-86
2023/03/29 10:57:55;;;;;;;;;0.00;0.00;;;;;25.80;49.75;-4266.28;4988639;28;45454;-84
2023/03/29 11:00:37;;;;;;;;;2.00;1.00;;;;;25.52;47.24;2203.16;4981491;28;46404;-86
2023/03/29 11:03:12;;;;;;;;;1.00;1.00;;;;;26.06;47.82;2549.09;5003265;28;45462;-87
2023/03/29 11:05:51;;;;;;;;;0.00;0.00;;;;;25.71;47.42;4932.78;4986181;28;45499;-87
2023/03/29 11:08:29;;;;;;;;;0.75;0.75;;;;;26.24;45.44;12799.88;4995287;28;45358;-87
2023/03/29 11:11:16;;;;;;;;;1.00;1.00;;;;;26.32;45.17;19307.97;4984118;28;45676;-86
2023/03/29 11:14:08;;;;;;;;;0.00;0.00;;;;;26.35;45.38;19740.19;4985758;28;45482;-86
2023/03/29 11:16:54;;;;;;;;;1.00;1.00;;;;;26.10;44.34;26573.34;4994950;28;45356;-86
2023/03/29 11:19:32;;;;;;;;;0.00;0.00;;;;;26.23;44.77;27387.09;4988247;28;45345;-87
2023/03/29 11:22:12;;;;;;;;;0.00;0.00;;;;;25.76;44.64;31059.56;4998242;28;45681;-86
2023/03/29 11:25:06;;;;;;;;;1.00;1.00;;;;;25.04;42.92;41679.75;4996845;28;45430;-87
2023/03/29 11:27:40;;;;;;;;;1.75;1.00;;;;;25.49;43.72;43178.06;4994185;28;45452;-88
2023/03/29 11:30:07;;;;;;;;;0.50;0.50;;;;;25.16;42.51;48725.41;4998025;28;45353;-87
2023/03/29 11:33:00;;;;;;;;;0.00;0.00;;;;;24.59;43.12;48936.44;4998305;28;47348;-88
2023/03/29 11:35:28;;;;;;;;;0.00;0.00;;;;;24.45;43.87;49702.28;4998417;28;45386;-87
2023/03/29 11:38:16;;;;;;;;;0.00;0.00;;;;;24.17;43.33;50595.94;4997096;28;45451;-87
2023/03/29 11:41:00;;;;;;;;;0.00;0.00;;;;;23.90;42.19;55581.72;4998717;28;45266;-88
2023/03/29 11:43:38;;;;;;;;;1.00;0.00;;;;;22.86;42.60;56192.88;4998259;28;45464;-87
2023/03/29 11:46:36;;;;;;;;;1.00;0.00;;;;;22.31;42.54;56191.72;4997713;28;45448;-89
2023/03/29 11:49:21;;;;;;;;;0.00;0.00;;;;;21.75;42.89;56374.66;4996349;28;45538;-89
2023/03/29 11:52:03;;;;;;;;;0.00;0.00;;;;;22.60;42.62;57186.91;4998792;28;45228;-89
2023/03/29 11:54:43;;;;;;;;;0.00;0.00;;;;;21.50;43.31;56659.63;4999781;28;45755;-89
2023/03/29 11:57:26;;;;;;;;;0.00;0.00;;;;;22.64;44.07;56548.59;4998273;28;45514;-89
2023/03/29 12:00:06;;;;;;;;;0.50;0.00;;;;;22.83;43.27;56730.22;4977862;28;45528;-89
2023/03/29 12:03:08;;;;;;;;;0.00;0.00;;;;;22.76;43.25;57135.09;4997190;28;45549;-91
2023/03/29 12:09:52;;;;;;;;;0.50;0.50;;;;;21.27;43.24;58284.19;5010546;23;45706;-90
2023/03/29 12:15:44;;;;;;;;;0.25;0.25;;;;;21.27;43.62;58037.41;5000926;23;45561;-89
2023/03/29 12:18:44;;;;;;;;;0.00;0.00;;;;;22.31;44.46;57435.81;4992114;28;46728;-89
2023/03/29 12:21:18;;;;;;;;;0.00;0.00;;;;;21.17;42.66;58665.19;4996203;28;45586;-88
2023/03/29 12:26:10;;;;;;;;;0.00;0.00;;;;;22.55;43.15;58141.91;5074402;23;57940;-95
2023/03/29 12:29:04;;;;;;;;;0.00;0.00;;;;;22.68;44.06;57487.81;4994149;28;47309;-93
2023/03/29 12:31:30;;;;;;;;;0.00;0.00;;;;;22.82;44.06;57286.19;5299513;22;45470;-85
2023/03/29 12:34:06;;;;;;;;;1.00;0.00;;;;;22.34;42.94;58050.88;5014611;28;45489;-85
2023/03/29 12:36:51;;;;;;;;;0.50;0.00;;;;;22.39;41.04;59323.94;4998003;28;45692;-85
2023/03/29 12:39:19;;;;;;;;;0.00;0.00;;;;;22.38;42.86;58869.19;4997161;28;47064;-85
2023/03/29 12:41:48;;;;;;;;;0.00;0.00;;;;;22.44;42.98;59031.22;4997199;28;45435;-85
2023/03/29 12:44:16;;;;;;;;;0.00;0.00;;;;;22.63;42.45;59456.16;4997729;28;45382;-85
2023/03/29 12:46:42;;;;;;;;;0.00;0.00;;;;;22.23;40.91;61042.22;4997379;28;45456;-84
2023/03/29 12:49:31;;;;;;;;;0.00;0.00;;;;;22.64;42.37;60589.50;4996446;28;46716;-85
2023/03/29 12:52:00;;;;;;;;;1.75;0.00;;;;;22.33;42.49;60555.34;4995975;28;45352;-86
2023/03/29 12:54:32;;;;;;;;;0.00;0.00;;;;;22.12;42.87;60318.31;4984707;28;45518;-87
2023/03/29 12:57:24;;;;;;;;;1.00;1.00;;;;;22.00;41.62;61217.31;4986817;28;45507;-91
2023/03/29 12:59:53;;;;;;;;;0.00;0.00;;;;;20.87;42.75;60655.53;4992271;28;45369;-92
2023/03/29 13:02:33;;;;;;;;;0.00;0.00;;;;;20.84;42.25;60850.38;4995337;28;45715;-89
2023/03/29 13:05:29;;;;;;;;;0.00;0.00;;;;;22.33;42.44;60896.31;4992313;28;45476;-88
2023/03/29 13:08:16;;;;;;;;;0.00;0.00;;;;;22.21;42.24;61206.78;4996264;28;45563;-94
2023/03/29 13:10:41;;;;;;;;;0.00;0.00;;;;;22.00;42.33;61228.06;4989117;28;46994;-91
2023/03/29 13:13:15;;;;;;;;;0.00;0.00;;;;;22.23;42.16;61593.41;4991715;28;45530;-87
2023/03/29 13:15:50;;;;;;;;;0.00;0.00;;;;;20.96;42.77;61498.41;4989185;28;45456;-90
2023/03/29 13:18:40;;;;;;;;;0.00;0.00;;;;;21.71;40.42;62866.47;4982102;28;45422;-87
2023/03/29 13:21:19;;;;;;;;;0.00;0.00;;;;;22.34;39.76;63716.84;4995237;28;46451;-85
2023/03/29 13:23:56;;;;;;;;;0.00;0.00;;;;;21.73;39.08;64287.38;4983883;28;45553;-86
2023/03/29 13:26:51;;;;;;;;;0.00;0.00;;;;;22.21;40.13;64100.16;4985823;28;45511;-85
2023/03/29 13:30:14;;;;;;;;;1.00;1.00;;;;;20.69;38.33;64641.78;5001578;23;45473;-90
2023/03/29 13:32:58;;;;;;;;;0.00;0.00;;;;;22.09;39.77;64633.50;4899323;28;48791;-87
2023/03/29 13:35:32;;;;;;;;;0.00;0.00;;;;;22.37;40.46;64504.84;4917170;28;45593;-84
2023/03/29 13:38:13;;;;;;;;;0.00;0.00;;;;;22.30;40.13;64731.75;4906563;28;45606;-90
2023/03/29 13:40:38;;;;;;;;;0.00;0.00;;;;;22.24;40.00;64693.31;4914690;28;45609;-84
2023/03/29 13:43:21;;;;;;;;;0.00;0.00;;;;;22.17;39.97;64867.88;4909222;28;45642;-89
2023/03/29 13:45:55;;;;;;;;;1.00;1.00;;;;;22.09;40.35;64822.38;4905807;28;45427;-87
2023/03/29 13:48:36;;;;;;;;;0.00;0.00;;;;;22.05;40.41;64838.88;4910909;28;45759;-94
2023/03/29 13:51:18;;;;;;;;;1.00;1.00;;;;;21.45;40.93;64813.75;4907139;28;45669;-92
2023/03/29 13:54:20;;;;;;;;;0.00;0.00;;;;;20.79;40.28;64773.78;4908664;28;45640;-90
2023/03/29 13:57:04;;;;;;;;;0.00;0.00;;;;;21.79;40.53;64700.09;4912115;28;45586;-89
2023/03/29 14:00:16;;;;;;;;;0.00;0.00;;;;;22.13;40.76;64633.13;4912394;28;45914;-91
2023/03/29 14:03:14;;;;;;;;;1.00;1.00;;;;;21.68;41.14;64443.69;4909520;28;45553;-95
2023/03/29 14:05:51;;;;;;;;;0.00;0.00;;;;;21.00;40.71;64265.53;4920467;28;45482;-88
2023/03/29 14:08:32;;;;;;;;;0.00;0.00;;;;;22.37;40.65;64426.81;4915902;28;45511;-94
2023/03/29 14:11:01;;;;;;;;;0.75;0.75;;;;;21.46;41.02;64395.59;4899537;28;45506;-87
2023/03/29 14:13:28;;;;;;;;;0.00;0.00;;;;;22.35;40.77;64462.81;4920144;28;45581;-83
2023/03/29 14:16:01;;;;;;;;;0.00;0.00;;;;;21.54;39.98;64667.34;4916354;28;45540;-84
2023/03/29 14:18:30;;;;;;;;;0.50;0.50;;;;;21.75;40.25;64733.84;4929409;28;45436;-84
2023/03/29 14:20:59;;;;;;;;;2.00;0.00;;;;;22.27;40.74;64760.69;4923224;28;45407;-85
2023/03/29 14:23:32;;;;;;;;;1.00;1.00;;;;;21.90;40.60;64922.72;4918217;28;45550;-85
2023/03/29 14:26:13;;;;;;;;;2.00;1.00;;;;;21.48;39.91;64922.47;4908349;28;48131;-85
2023/03/29 14:29:00;;;;;;;;;1.00;1.00;;;;;22.12;40.64;64868.22;4921581;28;45455;-88
2023/03/29 14:31:34;;;;;;;;;2.00;1.00;;;;;21.86;41.26;64859.06;4920285;28;45583;-87
2023/03/29 14:34:06;;;;;;;;;0.00;0.00;;;;;21.88;41.47;64710.69;4944899;28;45714;-88
2023/03/29 14:36:39;;;;;;;;;1.00;1.00;;;;;21.08;41.33;64609.59;4953949;28;47218;-89
2023/03/29 14:39:29;;;;;;;;;0.00;0.00;;;;;20.72;41.22;64710.13;4956050;28;45440;-89
2023/03/29 14:42:26;;;;;;;;;;;;;;;;;;;;;
2023/03/29 14:45:31;;;;;;;;;1.00;1.00;;;;;21.18;41.63;64714.22;4953044;28;62155;-90
2023/03/29 14:47:57;;;;;;;;;2.00;0.67;;;;;21.77;41.66;64857.06;4964587;28;45546;-87
2023/03/29 14:50:27;;;;;;;;;0.00;0.00;;;;;21.62;41.32;64821.47;4954811;28;45456;-85
2023/03/29 14:52:53;;;;;;;;;1.00;1.00;;;;;21.52;42.30;64691.97;4950903;28;45436;-86
2023/03/29 14:55:22;;;;;;;;;0.00;0.00;;;;;20.46;41.60;64721.84;4954101;28;45615;-85
2023/03/29 14:57:54;;;;;;;;;0.00;0.00;;;;;21.62;42.34;64595.63;4951930;28;46177;-86
2023/03/29 15:00:28;;;;;;;;;0.00;0.00;;;;;21.58;42.66;64513.22;4957716;28;45502;-86
2023/03/29 15:03:01;;;;;;;;;1.00;0.00;;;;;21.55;42.29;64419.03;4958572;28;45831;-85
2023/03/29 15:05:40;;;;;;;;;0.00;0.00;;;;;20.76;42.61;64421.44;4957209;28;45538;-86
2023/03/29 15:08:18;;;;;;;;;0.33;0.33;;;;;21.52;42.19;64442.59;4957309;28;46130;-87
2023/03/29 15:10:43;;;;;;;;;0.00;0.00;;;;;21.53;42.94;64346.38;4952017;28;45490;-84
2023/03/29 15:13:17;;;;;;;;;1.00;0.00;;;;;21.25;42.58;64257.81;4953455;28;45870;-85
2023/03/29 15:15:43;;;;;;;;;0.00;0.00;;;;;21.02;42.92;64154.41;4953995;28;45515;-86
2023/03/29 15:18:14;;;;;;;;;0.25;0.25;;;;;20.62;43.18;64028.53;4958126;28;46577;-84
2023/03/29 15:20:40;;;;;;;;;2.00;1.00;;;;;20.79;42.57;63974.34;4957189;28;45534;-85
2023/03/29 15:23:11;;;;;;;;;0.00;0.00;;;;;21.48;43.21;63965.69;4957136;28;45952;-84
2023/03/29 15:25:47;;;;;;;;;0.00;0.00;;;;;21.49;43.23;63934.00;4954352;28;45501;-85
2023/03/29 15:28:33;;;;;;;;;0.00;0.00;;;;;21.25;43.31;63844.09;4952337;28;46906;-83
2023/03/29 15:31:02;;;;;;;;;1.00;1.00;;;;;21.51;43.46;63804.53;4964864;28;45504;-83
2023/03/29 15:33:36;;;;;;;;;1.00;1.00;;;;;21.50;43.17;63811.50;4961862;28;45465;-84
2023/03/29 15:36:03;;;;;;;;;1.00;0.33;;;;;21.34;43.37;63692.31;4956851;28;45507;-84
2023/03/29 15:38:29;;;;;;;;;1.00;0.00;;;;;21.50;43.05;63768.50;4957721;28;45342;-83
2023/03/29 15:40:54;;;;;;;;;0.00;0.00;;;;;21.48;42.88;63745.34;4970439;28;45325;-84
2023/03/29 15:43:21;;;;;;;;;0.00;0.00;;;;;21.04;42.71;63910.09;4953797;28;45386;-84
2023/03/29 15:45:46;;;;;;;;;0.33;0.33;;;;;20.78;42.86;63932.41;4948921;28;45521;-85
2023/03/29 15:48:18;;;;;;;;;0.00;0.00;;;;;21.41;43.27;63998.28;4958639;28;45541;-84
2023/03/29 15:50:44;;;;;;;;;1.00;0.00;;;;;20.85;43.10;64001.88;4952876;28;45552;-84
2023/03/29 15:53:10;;;;;;;;;0.00;0.00;;;;;20.32;42.92;64028.06;4946762;28;45581;-84
2023/03/29 15:55:41;;;;;;;;;2.00;1.00;;;;;21.07;42.82;63980.56;4956505;28;45893;-87
2023/03/29 15:58:12;;;;;;;;;1.67;0.33;;;;;21.26;42.96;64013.91;4956094;28;45533;-84
2023/03/29 16:00:40;;;;;;;;;1.00;1.00;;;;;21.26;42.96;63960.19;4955571;28;45758;-84
2023/03/29 16:03:13;;;;;;;;;1.00;1.00;;;;;21.13;43.13;63978.59;4956402;28;45515;-84
2023/03/29 16:05:43;;;;;;;;;0.00;0.00;;;;;20.44;43.41;63925.44;4955541;28;45573;-86
2023/03/29 16:08:10;;;;;;;;;0.33;0.33;;;;;20.20;43.52;63851.75;4951273;28;47974;-86
2023/03/29 16:10:35;;;;;;;;;0.00;0.00;;;;;20.30;43.21;63813.41;4946532;28;45459;-86
2023/03/29 16:13:01;;;;;;;;;0.25;0.25;;;;;20.58;43.65;63806.78;4969250;28;45398;-86
2023/03/29 16:15:27;;;;;;;;;1.00;1.00;;;;;21.18;43.26;63833.16;4961639;28;45372;-85
2023/03/29 16:17:52;;;;;;;;;0.00;0.00;;;;;20.63;43.43;63804.22;4953460;28;46356;-84
2023/03/29 16:20:18;;;;;;;;;0.00;0.00;;;;;21.16;43.43;63732.13;4959045;28;45457;-84
2023/03/29 16:22:46;;;;;;;;;0.00;0.00;;;;;20.90;43.98;63661.09;4959186;28;45453;-84
2023/03/29 16:25:17;;;;;;;;;0.00;0.00;;;;;21.13;44.05;63583.81;4951233;28;45505;-88
2023/03/29 16:27:43;;;;;;;;;0.00;0.00;;;;;20.80;44.00;63572.25;4959149;28;46660;-86
2023/03/29 16:30:10;;;;;;;;;1.00;0.00;;;;;21.12;44.05;63477.97;4951111;28;45339;-86
2023/03/29 16:32:37;;;;;;;;;0.00;0.00;;;;;21.06;43.97;63393.53;4957719;28;45370;-85
2023/03/29 16:35:11;;;;;;;;;0.00;0.00;;;;;21.10;44.61;63191.16;4957743;28;45571;-83
2023/03/29 16:37:36;;;;;;;;;0.00;0.00;;;;;21.09;44.29;63136.34;4948442;28;45575;-83
2023/03/29 16:40:06;;;;;;;;;0.00;0.00;;;;;21.11;44.68;62961.31;4957348;28;45410;-84
2023/03/29 16:42:32;;;;;;;;;0.00;0.00;;;;;21.08;44.61;63028.41;4957655;28;45468;-86
2023/03/29 16:45:00;;;;;;;;;0.50;0.50;;;;;20.51;44.41;62752.22;4957701;28;45440;-86
2023/03/29 16:47:26;;;;;;;;;1.00;1.00;;;;;20.33;44.40;62778.84;4953202;28;46572;-88
2023/03/29 16:49:52;;;;;;;;;0.00;0.00;;;;;20.23;44.61;62795.88;4945684;28;45930;-86
2023/03/29 16:52:17;;;;;;;;;0.67;0.67;;;;;20.49;44.87;62776.91;4957095;28;45389;-87
2023/03/29 16:54:42;;;;;;;;;0.00;0.00;;;;;20.98;44.98;62941.81;4944820;28;45558;-88
2023/03/29 16:57:09;;;;;;;;;0.67;0.67;;;;;20.95;44.62;62753.31;4931112;28;47072;-87
2023/03/29 16:59:35;;;;;;;;;2.00;0.00;;;;;20.93;44.72;62765.13;4957550;28;45558;-87
2023/03/29 17:02:08;;;;;;;;;0.00;0.00;;;;;19.28;44.83;62512.25;4949204;28;46155;-88
2023/03/29 17:04:52;;;;;;;;;0.67;0.00;;;;;19.97;45.28;62397.78;4955724;28;45539;-86
2023/03/29 17:10:40;;;;;;;;;2.00;0.00;;;;;20.77;45.37;62133.84;4952851;28;45532;-87
2023/03/29 17:13:05;;;;;;;;;0.00;0.00;;;;;19.59;45.63;61937.91;4956047;28;45480;-89
2023/03/29 17:15:30;;;;;;;;;0.00;0.00;;;;;20.11;45.80;61769.69;4953922;28;45436;-85
2023/03/29 17:17:56;;;;;;;;;0.33;0.33;;;;;20.13;45.44;61827.56;4952754;28;46135;-89
2023/03/29 17:20:21;;;;;;;;;0.00;0.00;;;;;20.71;45.56;61737.88;4952474;28;45468;-89
2023/03/29 17:22:50;;;;;;;;;0.00;0.00;;;;;19.68;45.71;61641.72;5050672;22;45705;-87
2023/03/29 17:25:15;;;;;;;;;0.00;0.00;;;;;19.74;46.31;61653.50;5004928;28;45409;-87
2023/03/29 17:27:41;;;;;;;;;0.00;0.00;;;;;20.65;45.48;61675.69;4995407;28;47300;-88
2023/03/29 17:30:07;;;;;;;;;0.33;0.33;;;;;19.11;45.71;61456.19;5015413;28;45519;-88